createdAt,value
2023-02-11T00:00:59.794Z,59.63
2023-02-11T00:03:26.909Z,57.50
2023-02-11T00:06:02.318Z,58.28
2023-02-11T00:08:29.109Z,57.53
2023-02-11T00:10:57.938Z,63.50
2023-02-11T00:13:25.137Z,58.08
2023-02-11T00:15:52.174Z,63.47
2023-02-11T00:18:19.115Z,63.72
2023-02-11T00:20:45.938Z,60.53
2023-02-11T00:23:12.755Z,68.47
2023-02-11T00:25:44.337Z,62.67
2023-02-11T00:28:11.764Z,63.03
2023-02-11T00:30:38.690Z,61.20
2023-02-11T00:33:05.609Z,54.90
2023-02-11T00:35:32.418Z,63.53
2023-02-11T00:37:59.234Z,61.88
2023-02-11T00:40:26.109Z,61.45
2023-02-11T00:42:52.911Z,57.67
2023-02-11T00:45:21.097Z,58.60
2023-02-11T00:47:48.201Z,64.80
2023-02-11T00:50:15.165Z,59.40
2023-02-11T00:52:42.129Z,61.60
2023-02-11T00:55:09.215Z,59.55
2023-02-11T00:57:36.183Z,64.53
2023-02-11T01:00:05.886Z,65.82
2023-02-11T01:02:32.790Z,62.95
2023-02-11T01:05:00.214Z,64.22
2023-02-11T01:07:28.740Z,69.22
2023-02-11T01:09:55.572Z,64.43
2023-02-11T01:12:23.133Z,70.03
2023-02-11T01:14:49.996Z,68.28
2023-02-11T01:17:16.843Z,63.33
2023-02-11T01:19:43.668Z,71.13
2023-02-11T01:22:10.542Z,64.68
2023-02-11T01:24:37.356Z,66.43
2023-02-11T01:27:04.193Z,70.68
2023-02-11T01:29:30.988Z,68.82
2023-02-11T01:31:57.989Z,70.65
2023-02-11T01:34:24.805Z,73.22
2023-02-11T01:36:51.575Z,65.75
2023-02-11T01:39:18.374Z,69.45
2023-02-11T01:41:45.162Z,69.75
2023-02-11T01:44:32.365Z,64.18
2023-02-11T01:46:59.884Z,67.13
2023-02-11T01:49:39.635Z,66.93
2023-02-11T01:52:21.585Z,71.80
2023-02-11T01:55:11.797Z,69.15
2023-02-11T01:57:42.577Z,73.13
2023-02-11T02:00:37.501Z,70.57
2023-02-11T02:06:01.553Z,62.40
2023-02-11T02:08:52.638Z,69.20
2023-02-11T02:11:19.572Z,72.22
2023-02-11T02:13:46.407Z,68.22
2023-02-11T02:16:17.134Z,73.03
2023-02-11T02:19:01.983Z,70.25
2023-02-11T02:21:58.828Z,73.68
2023-02-11T02:25:00.862Z,75.45
2023-02-11T02:27:56.787Z,74.63
2023-02-11T02:30:48.244Z,77.05
2023-02-11T02:33:38.123Z,71.38
2023-02-11T02:36:29.019Z,76.38
2023-02-11T02:39:15.385Z,71.10
2023-02-11T02:41:43.117Z,76.60
2023-02-11T02:44:09.929Z,72.00
2023-02-11T02:46:37.162Z,80.97
2023-02-11T02:49:07.402Z,75.47
2023-02-11T02:52:04.579Z,75.38
2023-02-11T02:55:08.891Z,73.05
2023-02-11T02:58:12.633Z,55.87
2023-02-11T03:01:36.011Z,73.00
2023-02-11T03:04:22.851Z,72.63
2023-02-11T03:07:22.293Z,76.70
2023-02-11T03:09:58.712Z,77.40
2023-02-11T03:12:30.627Z,72.93
2023-02-11T03:14:58.412Z,75.38
2023-02-11T03:17:26.973Z,75.25
2023-02-11T03:19:55.030Z,75.43
2023-02-11T03:22:38.992Z,74.50
2023-02-11T03:25:06.543Z,74.13
2023-02-11T03:27:46.742Z,73.68
2023-02-11T03:30:28.806Z,70.78
2023-02-11T03:33:30.923Z,74.55
2023-02-11T03:36:04.488Z,69.00
2023-02-11T03:38:38.294Z,76.25
2023-02-11T03:41:08.120Z,69.45
2023-02-11T03:43:41.689Z,65.05
2023-02-11T03:46:10.905Z,54.45
2023-02-11T03:48:45.852Z,69.10
2023-02-11T03:51:14.801Z,67.40
2023-02-11T03:53:44.716Z,62.50
2023-02-11T03:56:18.287Z,63.63
2023-02-11T03:58:45.985Z,71.00
2023-02-11T04:01:12.897Z,66.32
2023-02-11T04:03:40.214Z,72.35
2023-02-11T04:06:07.667Z,63.75
2023-02-11T04:08:34.601Z,72.00
2023-02-11T04:11:01.429Z,63.30
2023-02-11T04:13:28.300Z,70.78
2023-02-11T04:15:55.106Z,73.13
2023-02-11T04:18:21.970Z,70.40
2023-02-11T04:20:50.574Z,70.50
2023-02-11T04:23:17.417Z,67.45
2023-02-11T04:25:44.209Z,66.72
2023-02-11T04:28:10.995Z,70.38
2023-02-11T04:30:37.801Z,66.97
2023-02-11T04:33:04.691Z,67.22
2023-02-11T04:35:31.505Z,63.65
2023-02-11T04:37:58.289Z,64.03
2023-02-11T04:40:25.093Z,68.97
2023-02-11T04:42:51.864Z,65.45
2023-02-11T04:45:18.767Z,72.30
2023-02-11T04:47:45.547Z,65.32
2023-02-11T04:50:12.365Z,62.67
2023-02-11T04:52:39.184Z,70.93
2023-02-11T04:55:06.544Z,68.47
2023-02-11T04:57:33.312Z,62.15
2023-02-11T05:00:00.131Z,69.72
2023-02-11T05:02:26.944Z,66.13
2023-02-11T05:04:53.732Z,67.13
2023-02-11T05:07:20.498Z,75.00
2023-02-11T05:09:47.299Z,62.33
2023-02-11T05:12:14.136Z,69.53
2023-02-11T05:14:41.085Z,68.38
2023-02-11T05:17:08.075Z,72.32
2023-02-11T05:19:34.852Z,68.45
2023-02-11T05:22:03.331Z,64.55
2023-02-11T05:24:32.733Z,62.25
2023-02-11T05:27:00.129Z,58.67
2023-02-11T05:29:27.291Z,60.10
2023-02-11T05:31:54.322Z,64.60
2023-02-11T05:34:21.183Z,64.45
2023-02-11T05:36:47.949Z,62.33
2023-02-11T05:39:14.761Z,58.03
2023-02-11T05:41:41.544Z,58.92
2023-02-11T05:44:08.304Z,55.28
2023-02-11T05:46:35.147Z,58.13
2023-02-11T05:49:02.101Z,60.38
2023-02-11T05:51:28.910Z,63.42
2023-02-11T05:53:55.687Z,59.83
2023-02-11T05:56:22.481Z,58.40
2023-02-11T05:58:49.288Z,61.35
2023-02-11T06:01:16.050Z,56.95
2023-02-11T06:03:43.004Z,57.10
2023-02-11T06:06:13.722Z,58.45
2023-02-11T06:08:40.575Z,53.47
2023-02-11T06:11:07.354Z,60.28
2023-02-11T06:13:34.733Z,60.92
2023-02-11T06:16:03.322Z,58.85
2023-02-11T06:18:30.464Z,61.38
2023-02-11T06:20:57.296Z,55.58
2023-02-11T06:23:24.106Z,57.53
2023-02-11T06:25:52.846Z,60.83
2023-02-11T06:28:20.195Z,63.20
2023-02-11T06:30:47.084Z,58.70
2023-02-11T06:33:13.892Z,57.22
2023-02-11T06:35:40.765Z,57.70
2023-02-11T06:38:07.639Z,59.60
2023-02-11T06:40:34.555Z,53.35
2023-02-11T06:43:01.321Z,58.42
2023-02-11T06:45:28.242Z,55.55
2023-02-11T06:47:55.024Z,60.42
2023-02-11T06:50:21.862Z,58.92
2023-02-11T06:52:48.670Z,54.42
2023-02-11T06:55:15.494Z,56.67
2023-02-11T06:57:42.305Z,50.25
2023-02-11T07:00:09.952Z,61.53
2023-02-11T07:02:36.778Z,55.00
2023-02-11T07:05:06.745Z,51.03
2023-02-11T07:07:34.339Z,52.05
2023-02-11T07:10:03.059Z,51.88
2023-02-11T07:12:31.145Z,52.67
2023-02-11T07:14:57.980Z,47.15
2023-02-11T07:17:24.905Z,56.85
2023-02-11T07:19:51.700Z,55.28
2023-02-11T07:22:18.850Z,55.38
2023-02-11T07:24:45.864Z,52.70
2023-02-11T07:27:12.866Z,52.42
2023-02-11T07:29:39.721Z,56.25
2023-02-11T07:32:06.760Z,58.13
2023-02-11T07:34:33.752Z,54.33
2023-02-11T07:37:00.679Z,54.45
2023-02-11T07:39:27.674Z,54.33
2023-02-11T07:41:54.979Z,57.03
2023-02-11T07:44:21.904Z,55.80
2023-02-11T07:46:49.266Z,58.80
2023-02-11T07:49:16.690Z,67.93
2023-02-11T07:51:43.508Z,48.78
2023-02-11T07:54:12.163Z,52.63
2023-02-11T07:56:39.016Z,56.72
2023-02-11T07:59:05.848Z,63.63
2023-02-11T08:01:32.913Z,55.92
2023-02-11T08:04:02.127Z,48.10
2023-02-11T08:06:32.829Z,58.83
2023-02-11T08:09:08.812Z,51.22
2023-02-11T08:11:35.872Z,50.08
2023-02-11T08:14:03.121Z,54.33
2023-02-11T08:16:33.742Z,52.42
2023-02-11T08:19:04.612Z,50.63
2023-02-11T08:21:31.776Z,49.13
2023-02-11T08:23:59.093Z,51.00
2023-02-11T08:26:29.361Z,48.17
2023-02-11T08:28:57.744Z,55.05
2023-02-11T08:31:28.865Z,55.22
2023-02-11T08:33:58.053Z,50.55
2023-02-11T08:36:31.614Z,60.88
2023-02-11T08:39:17.581Z,50.42
2023-02-11T08:41:48.714Z,51.00
2023-02-11T08:44:17.192Z,45.30
2023-02-11T08:46:44.015Z,52.33
2023-02-11T08:49:11.044Z,49.17
2023-02-11T08:51:37.915Z,48.42
2023-02-11T08:54:06.258Z,52.35
2023-02-11T08:56:33.597Z,53.72
2023-02-11T08:59:00.449Z,47.78
2023-02-11T09:01:31.121Z,47.53
2023-02-11T09:03:58.762Z,49.53
2023-02-11T09:06:26.679Z,44.20
2023-02-11T09:08:56.409Z,50.50
2023-02-11T09:11:29.428Z,43.35
2023-02-11T09:13:56.429Z,41.47
2023-02-11T09:16:32.729Z,51.03
2023-02-11T09:19:02.138Z,44.50
2023-02-11T09:21:30.290Z,45.38
2023-02-11T09:23:57.350Z,44.92
2023-02-11T09:26:31.186Z,50.53
2023-02-11T09:28:58.952Z,45.70
2023-02-11T09:31:28.555Z,41.75
2023-02-11T09:34:02.320Z,43.60
2023-02-11T09:36:34.420Z,48.55
2023-02-11T09:39:03.867Z,46.45
2023-02-11T09:41:47.498Z,38.80
2023-02-11T09:44:25.389Z,43.55
2023-02-11T09:47:00.439Z,42.17
2023-02-11T09:49:44.978Z,44.60
2023-02-11T09:52:51.777Z,47.17
2023-02-11T09:55:41.939Z,39.88
2023-02-11T09:58:38.963Z,45.20
2023-02-11T10:01:50.089Z,45.00
2023-02-11T10:04:45.390Z,40.30
2023-02-11T10:07:36.593Z,44.03
2023-02-11T10:10:32.269Z,44.35
2023-02-11T10:13:18.631Z,44.28
2023-02-11T10:16:01.843Z,37.05
2023-02-11T10:18:54.701Z,42.25
2023-02-11T10:22:07.852Z,39.90
2023-02-11T10:24:35.603Z,42.58
2023-02-11T10:27:16.733Z,40.35
2023-02-11T10:29:56.728Z,46.65
2023-02-11T10:32:45.762Z,40.90
2023-02-11T10:35:22.757Z,38.70
2023-02-11T10:37:50.434Z,40.92
2023-02-11T10:40:21.392Z,38.60
2023-02-11T10:43:04.327Z,46.00
2023-02-11T10:45:39.454Z,38.03
2023-02-11T10:48:40.340Z,45.50
2023-02-11T10:51:14.598Z,43.35
2023-02-11T10:53:41.899Z,41.75
2023-02-11T10:56:14.565Z,39.25
2023-02-11T10:58:47.269Z,38.88
2023-02-11T11:01:24.417Z,45.25
2023-02-11T11:03:53.324Z,41.90
2023-02-11T11:06:33.055Z,46.50
2023-02-11T11:09:00.054Z,46.25
2023-02-11T11:11:27.273Z,46.50
2023-02-11T11:13:54.052Z,41.75
2023-02-11T11:16:29.335Z,39.10
2023-02-11T11:19:08.368Z,41.25
2023-02-11T11:21:43.115Z,39.67
2023-02-11T11:24:40.272Z,44.65
2023-02-11T11:27:07.887Z,39.75
2023-02-11T11:29:39.574Z,39.45
2023-02-11T11:32:15.172Z,36.70
2023-02-11T11:34:49.571Z,40.85
2023-02-11T11:37:26.408Z,45.42
2023-02-11T11:40:10.551Z,38.15
2023-02-11T11:42:39.763Z,37.88
2023-02-11T11:45:15.740Z,44.17
2023-02-11T11:47:54.006Z,44.17
2023-02-11T11:50:32.336Z,40.42
2023-02-11T11:53:12.348Z,37.75
2023-02-11T11:55:48.624Z,43.30
2023-02-11T11:58:25.558Z,40.30
2023-02-11T12:01:32.387Z,39.80
2023-02-11T12:04:42.027Z,40.00
2023-02-11T12:07:26.218Z,39.75
2023-02-11T12:10:16.571Z,42.85
2023-02-11T12:12:55.047Z,36.35
2023-02-11T12:16:07.703Z,37.65
2023-02-11T12:19:01.184Z,31.98
2023-02-11T12:21:52.396Z,37.70
2023-02-11T12:24:56.511Z,35.17
2023-02-11T12:27:57.786Z,36.78
2023-02-11T12:30:40.059Z,37.58
2023-02-11T12:33:48.096Z,31.15
2023-02-11T12:37:14.674Z,30.80
2023-02-11T12:40:14.594Z,33.08
2023-02-11T12:43:18.829Z,29.17
2023-02-11T12:46:12.983Z,28.98
2023-02-11T12:49:33.040Z,27.25
2023-02-11T12:52:21.072Z,31.60
2023-02-11T12:55:22.592Z,32.92
2023-02-11T12:57:51.436Z,30.30
2023-02-11T13:00:24.835Z,32.45
2023-02-11T13:03:02.386Z,28.83
2023-02-11T13:05:44.493Z,28.27
2023-02-11T13:08:21.414Z,28.38
2023-02-11T13:10:54.462Z,27.92
2023-02-11T13:13:35.949Z,29.50
2023-02-11T13:16:17.265Z,32.42
2023-02-11T13:19:15.289Z,29.58
2023-02-11T13:22:04.048Z,29.25
2023-02-11T13:24:52.300Z,35.20
2023-02-11T13:27:48.300Z,33.40
2023-02-11T13:30:33.711Z,34.00
2023-02-11T13:33:03.320Z,33.50
2023-02-11T13:35:40.067Z,30.70
2023-02-11T13:38:21.612Z,31.20
2023-02-11T13:41:39.777Z,31.30
2023-02-11T13:44:23.507Z,32.75
2023-02-11T13:47:13.077Z,35.33
2023-02-11T13:49:42.099Z,31.73
2023-02-11T13:52:24.612Z,31.65
2023-02-11T13:54:54.873Z,35.25
2023-02-11T13:57:26.279Z,32.72
2023-02-11T14:00:29.229Z,34.85
2023-02-11T14:03:52.495Z,30.42
2023-02-11T14:06:42.510Z,35.45
2023-02-11T14:09:09.328Z,35.78
2023-02-11T14:12:18.367Z,34.45
2023-02-11T14:15:13.240Z,32.35
2023-02-11T14:17:40.037Z,36.72
2023-02-11T14:20:35.801Z,34.00
2023-02-11T14:23:04.706Z,34.92
2023-02-11T14:25:32.027Z,35.97
2023-02-11T14:28:17.166Z,30.02
2023-02-11T14:31:10.002Z,36.22
2023-02-11T14:34:12.074Z,33.53
2023-02-11T14:36:55.433Z,29.05
2023-02-11T14:40:03.299Z,35.50
2023-02-11T14:42:31.184Z,32.05
2023-02-11T14:45:06.444Z,28.88
2023-02-11T14:48:01.453Z,30.90
2023-02-11T14:53:15.221Z,35.28
2023-02-11T14:55:49.068Z,35.05
2023-02-11T14:58:18.108Z,30.80
2023-02-11T15:00:59.259Z,27.02
2023-02-11T15:03:39.692Z,36.85
2023-02-11T15:06:21.686Z,33.80
2023-02-11T15:09:13.052Z,34.75
2023-02-11T15:11:43.246Z,39.65
2023-02-11T15:14:30.127Z,37.80
2023-02-11T15:17:02.808Z,38.15
2023-02-11T15:19:35.931Z,32.58
2023-02-11T15:22:06.735Z,33.90
2023-02-11T15:24:35.482Z,43.40
2023-02-11T15:27:18.388Z,32.17
2023-02-11T15:29:52.009Z,36.00
2023-02-11T15:32:22.915Z,38.30
2023-02-11T15:34:52.523Z,40.75
2023-02-11T15:37:32.157Z,40.08
2023-02-11T15:40:15.502Z,37.78
2023-02-11T15:43:10.130Z,28.80
2023-02-11T15:45:51.336Z,37.50
2023-02-11T15:48:29.488Z,39.97
2023-02-11T15:51:02.654Z,41.40
2023-02-11T15:53:42.298Z,40.07
2023-02-11T15:56:33.238Z,35.80
2023-02-11T15:59:10.175Z,40.70
2023-02-11T16:01:39.661Z,37.25
2023-02-11T16:04:06.872Z,40.10
2023-02-11T16:06:40.399Z,37.33
2023-02-11T16:10:49.093Z,35.47
2023-02-11T16:12:53.479Z,44.60
2023-02-11T16:15:38.267Z,35.17
2023-02-11T16:18:38.322Z,41.92
2023-02-11T16:21:18.197Z,41.22
2023-02-11T16:24:01.952Z,37.03
2023-02-11T16:26:43.328Z,40.37
2023-02-11T16:29:16.282Z,35.13
2023-02-11T16:31:47.421Z,33.92
2023-02-11T16:34:26.228Z,37.78
2023-02-11T16:36:58.071Z,41.58
2023-02-11T16:39:25.054Z,38.65
2023-02-11T16:42:01.119Z,41.03
2023-02-11T16:44:28.813Z,38.33
2023-02-11T16:47:03.218Z,39.72
2023-02-11T16:49:38.156Z,47.85
2023-02-11T16:52:16.270Z,40.83
2023-02-11T16:54:43.187Z,38.17
2023-02-11T16:57:20.276Z,38.38
2023-02-11T16:59:48.046Z,35.47
2023-02-11T17:02:36.392Z,38.75
2023-02-11T17:08:32.373Z,33.60
2023-02-11T17:11:17.459Z,38.10
2023-02-11T17:13:44.384Z,37.85
2023-02-11T17:16:25.044Z,40.60
2023-02-11T17:19:08.595Z,32.65
2023-02-11T17:22:13.340Z,29.15
2023-02-11T17:25:38.590Z,30.85
2023-02-11T17:28:21.408Z,36.92
2023-02-11T17:30:48.357Z,32.60
2023-02-11T17:33:18.929Z,34.58
2023-02-11T17:35:46.469Z,33.97
2023-02-11T17:38:16.023Z,32.85
2023-02-11T17:40:42.987Z,27.90
2023-02-11T17:43:10.360Z,30.33
2023-02-11T17:45:42.008Z,30.50
2023-02-11T17:48:14.497Z,33.80
2023-02-11T17:50:44.560Z,30.20
2023-02-11T17:53:11.538Z,30.42
2023-02-11T17:55:46.305Z,31.42
2023-02-11T17:59:41.520Z,34.40
2023-02-11T18:02:34.487Z,29.50
2023-02-11T18:08:49.806Z,29.13
2023-02-11T18:11:27.861Z,30.58
2023-02-11T18:13:54.775Z,27.15
2023-02-11T18:16:49.687Z,31.58
2023-02-11T18:21:50.439Z,29.63
2023-02-11T18:24:18.120Z,32.05
2023-02-11T18:26:45.230Z,25.83
2023-02-11T18:29:19.871Z,30.65
2023-02-11T18:31:56.702Z,32.47
2023-02-11T18:34:24.720Z,30.70
2023-02-11T18:36:52.169Z,30.90
2023-02-11T18:39:20.017Z,30.33
2023-02-11T18:41:47.349Z,33.17
2023-02-11T18:44:14.308Z,31.25
2023-02-11T18:46:41.521Z,30.40
2023-02-11T18:49:14.156Z,30.02
2023-02-11T18:51:41.196Z,27.17
2023-02-11T18:54:08.037Z,30.42
2023-02-11T18:56:35.002Z,34.70
2023-02-11T18:59:08.568Z,26.13
2023-02-11T19:01:37.019Z,28.45
2023-02-11T19:04:05.330Z,32.22
2023-02-11T19:06:37.934Z,34.20
2023-02-11T19:09:09.833Z,42.97
2023-02-11T19:11:50.545Z,29.30
2023-02-11T19:14:36.403Z,34.88
2023-02-11T19:17:06.433Z,30.10
2023-02-11T19:19:35.543Z,29.95
2023-02-11T19:22:07.916Z,29.30
2023-02-11T19:24:37.401Z,28.90
2023-02-11T19:27:05.490Z,21.77
2023-02-11T19:29:35.549Z,24.30
2023-02-11T19:32:06.100Z,24.38
2023-02-11T19:34:33.658Z,22.45
2023-02-11T19:37:01.593Z,24.02
2023-02-11T19:39:28.507Z,30.40
2023-02-11T19:41:55.342Z,20.30
2023-02-11T19:44:22.093Z,21.83
2023-02-11T19:46:50.192Z,20.27
2023-02-11T19:49:23.009Z,23.45
2023-02-11T19:51:51.989Z,22.55
2023-02-11T19:54:20.438Z,24.80
2023-02-11T19:56:48.812Z,20.88
2023-02-11T19:59:16.447Z,26.50
2023-02-11T20:01:44.453Z,20.98
2023-02-11T20:04:13.249Z,18.27
2023-02-11T20:06:40.647Z,21.35
2023-02-11T20:09:12.487Z,19.58
2023-02-11T20:11:40.102Z,16.35
2023-02-11T20:14:08.552Z,17.45
2023-02-11T20:16:47.499Z,23.25
2023-02-11T20:19:18.887Z,23.70
2023-02-11T20:21:48.330Z,22.63
2023-02-11T20:24:17.498Z,17.85
2023-02-11T20:26:46.415Z,18.70
2023-02-11T20:29:13.213Z,27.52
2023-02-11T20:31:40.126Z,24.52
2023-02-11T20:34:06.986Z,26.48
2023-02-11T20:36:38.665Z,19.30
2023-02-11T20:39:06.530Z,19.90
2023-02-11T20:41:36.472Z,15.93
2023-02-11T20:44:07.456Z,19.15
2023-02-11T20:46:37.406Z,22.27
2023-02-11T20:49:05.157Z,18.63
2023-02-11T20:51:34.390Z,20.70
2023-02-11T20:54:01.797Z,21.00
2023-02-11T20:56:32.199Z,19.02
2023-02-11T20:59:02.124Z,23.88
2023-02-11T21:01:41.715Z,24.17
2023-02-11T21:04:17.001Z,19.92
2023-02-11T21:06:54.172Z,20.60
2023-02-11T21:09:26.214Z,18.15
2023-02-11T21:11:54.733Z,20.25
2023-02-11T21:14:23.888Z,19.20
2023-02-11T21:16:51.055Z,18.13
2023-02-11T21:19:18.035Z,16.80
2023-02-11T21:21:45.444Z,18.25
2023-02-11T21:24:12.941Z,17.77
2023-02-11T21:26:40.085Z,21.52
2023-02-11T21:29:08.165Z,20.52
2023-02-11T21:31:36.074Z,22.30
2023-02-11T21:34:03.292Z,16.95
2023-02-11T21:36:30.754Z,26.85
2023-02-11T21:38:57.872Z,19.55
2023-02-11T21:41:24.883Z,23.35
2023-02-11T21:43:52.354Z,26.48
2023-02-11T21:46:20.538Z,22.38
2023-02-11T21:48:48.122Z,21.83
2023-02-11T21:51:24.511Z,21.27
2023-02-11T21:54:03.807Z,20.90
2023-02-11T21:56:33.412Z,25.08
2023-02-11T21:59:00.573Z,24.55
2023-02-11T22:01:33.195Z,24.27
2023-02-11T22:04:00.160Z,24.43
2023-02-11T22:06:30.919Z,25.10
2023-02-11T22:08:59.041Z,29.73
2023-02-11T22:11:25.853Z,24.38
2023-02-11T22:13:56.463Z,23.58
2023-02-11T22:16:24.134Z,27.63
2023-02-11T22:18:51.401Z,17.52
2023-02-11T22:21:22.160Z,24.63
2023-02-11T22:23:50.342Z,17.17
2023-02-11T22:26:22.057Z,28.60
2023-02-11T22:28:50.378Z,25.98
2023-02-11T22:31:24.478Z,23.38
2023-02-11T22:33:51.615Z,19.15
2023-02-11T22:36:31.447Z,22.23
2023-02-11T22:39:11.690Z,20.63
2023-02-11T22:41:40.460Z,22.20
2023-02-11T22:44:07.894Z,19.70
2023-02-11T22:46:35.368Z,23.77
2023-02-11T22:49:02.333Z,18.65
2023-02-11T22:51:29.877Z,21.05
2023-02-11T22:54:00.642Z,24.63
2023-02-11T22:56:29.539Z,19.67
2023-02-11T22:59:06.693Z,21.23
2023-02-11T23:01:34.096Z,18.08
2023-02-11T23:04:02.877Z,18.88
2023-02-11T23:06:29.650Z,18.33
2023-02-11T23:08:56.648Z,20.88
2023-02-11T23:11:27.728Z,21.75
2023-02-11T23:13:54.974Z,23.88
2023-02-11T23:16:28.114Z,20.38
2023-02-11T23:18:55.328Z,19.70
2023-02-11T23:21:26.921Z,17.55
2023-02-11T23:23:59.795Z,17.55
2023-02-11T23:26:26.809Z,24.83
2023-02-11T23:28:53.980Z,24.88
2023-02-11T23:31:29.463Z,22.77
2023-02-11T23:33:56.870Z,15.73
2023-02-11T23:36:23.881Z,22.88
2023-02-11T23:38:51.103Z,19.42
2023-02-11T23:41:18.302Z,17.13
2023-02-11T23:43:49.541Z,25.50
2023-02-11T23:46:16.449Z,19.90
2023-02-11T23:48:43.251Z,30.23
2023-02-11T23:51:10.186Z,17.02
2023-02-11T23:53:38.596Z,18.08
2023-02-11T23:56:11.089Z,18.85
2023-02-11T23:58:37.863Z,16.10
